sensor_id;sensor_type;location;lat;lon;timestamp;P1;durP1;ratioP1;P2;durP2;ratioP2
7517;SDS011;3800;48.922;9.444;2022-08-14T00:02:25;4.40;;;3.30;;
7517;SDS011;3800;48.922;9.444;2022-08-14T00:04:53;5.10;;;3.30;;
7517;SDS011;3800;48.922;9.444;2022-08-14T00:07:22;4.63;;;3.30;;
7517;SDS011;3800;48.922;9.444;2022-08-14T00:09:50;5.93;;;3.67;;
7517;SDS011;3800;48.922;9.444;2022-08-14T00:12:18;5.23;;;3.20;;
7517;SDS011;3800;48.922;9.444;2022-08-14T00:14:47;3.60;;;3.30;;
7517;SDS011;3800;48.922;9.444;2022-08-14T00:17:15;4.27;;;3.40;;
7517;SDS011;3800;48.922;9.444;2022-08-14T00:19:43;3.50;;;3.20;;
7517;SDS011;3800;48.922;9.444;2022-08-14T00:22:11;5.37;;;3.67;;
7517;SDS011;3800;48.922;9.444;2022-08-14T00:24:40;3.87;;;3.47;;
7517;SDS011;3800;48.922;9.444;2022-08-14T00:27:08;4.00;;;3.60;;
7517;SDS011;3800;48.922;9.444;2022-08-14T00:29:38;5.10;;;3.50;;
7517;SDS011;3800;48.922;9.444;2022-08-14T00:32:06;3.77;;;3.47;;
7517;SDS011;3800;48.922;9.444;2022-08-14T00:34:34;4.17;;;3.40;;
7517;SDS011;3800;48.922;9.444;2022-08-14T00:37:02;4.03;;;3.63;;
7517;SDS011;3800;48.922;9.444;2022-08-14T00:39:31;3.97;;;3.30;;
7517;SDS011;3800;48.922;9.444;2022-08-14T00:42:00;3.83;;;3.43;;
7517;SDS011;3800;48.922;9.444;2022-08-14T00:44:34;4.97;;;3.57;;
7517;SDS011;3800;48.922;9.444;2022-08-14T00:47:03;5.20;;;3.57;;
7517;SDS011;3800;48.922;9.444;2022-08-14T00:49:33;3.57;;;3.27;;
7517;SDS011;3800;48.922;9.444;2022-08-14T00:52:00;3.43;;;3.13;;
7517;SDS011;3800;48.922;9.444;2022-08-14T00:54:29;4.30;;;3.63;;
7517;SDS011;3800;48.922;9.444;2022-08-14T00:56:57;3.50;;;3.20;;
7517;SDS011;3800;48.922;9.444;2022-08-14T00:59:26;3.90;;;3.50;;
7517;SDS011;3800;48.922;9.444;2022-08-14T01:01:55;5.13;;;3.60;;
7517;SDS011;3800;48.922;9.444;2022-08-14T01:04:24;3.93;;;3.53;;
7517;SDS011;3800;48.922;9.444;2022-08-14T01:06:52;3.70;;;3.40;;
7517;SDS011;3800;48.922;9.444;2022-08-14T01:09:20;4.37;;;3.67;;
7517;SDS011;3800;48.922;9.444;2022-08-14T01:11:49;3.50;;;3.20;;
7517;SDS011;3800;48.922;9.444;2022-08-14T01:14:17;3.60;;;3.07;;
7517;SDS011;3800;48.922;9.444;2022-08-14T01:16:46;3.30;;;3.00;;
7517;SDS011;3800;48.922;9.444;2022-08-14T01:19:14;3.53;;;3.23;;
7517;SDS011;3800;48.922;9.444;2022-08-14T01:21:47;3.80;;;3.40;;
7517;SDS011;3800;48.922;9.444;2022-08-14T01:24:16;4.00;;;3.20;;
7517;SDS011;3800;48.922;9.444;2022-08-14T01:26:44;3.60;;;3.30;;
7517;SDS011;3800;48.922;9.444;2022-08-14T01:29:12;3.60;;;3.30;;
7517;SDS011;3800;48.922;9.444;2022-08-14T01:31:41;6.03;;;3.50;;
7517;SDS011;3800;48.922;9.444;2022-08-14T01:34:10;3.77;;;3.13;;
7517;SDS011;3800;48.922;9.444;2022-08-14T01:36:39;3.60;;;3.30;;
7517;SDS011;3800;48.922;9.444;2022-08-14T01:39:08;3.93;;;3.50;;
7517;SDS011;3800;48.922;9.444;2022-08-14T01:41:37;3.90;;;3.50;;
7517;SDS011;3800;48.922;9.444;2022-08-14T01:44:08;5.30;;;3.30;;
7517;SDS011;3800;48.922;9.444;2022-08-14T01:46:36;3.87;;;3.57;;
7517;SDS011;3800;48.922;9.444;2022-08-14T01:49:05;4.07;;;3.57;;
7517;SDS011;3800;48.922;9.444;2022-08-14T01:51:32;3.70;;;3.30;;
7517;SDS011;3800;48.922;9.444;2022-08-14T01:54:02;3.50;;;3.20;;
7517;SDS011;3800;48.922;9.444;2022-08-14T01:56:29;3.63;;;3.33;;
7517;SDS011;3800;48.922;9.444;2022-08-14T01:59:06;3.70;;;3.40;;
7517;SDS011;3800;48.922;9.444;2022-08-14T02:01:35;4.00;;;3.63;;
7517;SDS011;3800;48.922;9.444;2022-08-14T02:04:04;3.37;;;3.07;;
7517;SDS011;3800;48.922;9.444;2022-08-14T02:06:32;3.93;;;3.63;;
7517;SDS011;3800;48.922;9.444;2022-08-14T02:09:01;3.63;;;3.33;;
7517;SDS011;3800;48.922;9.444;2022-08-14T02:11:30;4.00;;;3.60;;
7517;SDS011;3800;48.922;9.444;2022-08-14T02:14:01;3.50;;;3.20;;
7517;SDS011;3800;48.922;9.444;2022-08-14T02:16:29;3.77;;;3.47;;
7517;SDS011;3800;48.922;9.444;2022-08-14T02:18:58;3.50;;;3.20;;
7517;SDS011;3800;48.922;9.444;2022-08-14T02:21:26;4.70;;;4.03;;
7517;SDS011;3800;48.922;9.444;2022-08-14T02:23:54;3.80;;;3.50;;
7517;SDS011;3800;48.922;9.444;2022-08-14T02:26:26;3.73;;;3.40;;
7517;SDS011;3800;48.922;9.444;2022-08-14T02:28:54;3.73;;;3.40;;
7517;SDS011;3800;48.922;9.444;2022-08-14T02:31:21;3.40;;;3.10;;
7517;SDS011;3800;48.922;9.444;2022-08-14T02:33:49;4.00;;;3.60;;
7517;SDS011;3800;48.922;9.444;2022-08-14T02:36:19;5.23;;;3.20;;
7517;SDS011;3800;48.922;9.444;2022-08-14T02:38:47;3.87;;;3.57;;
7517;SDS011;3800;48.922;9.444;2022-08-14T02:41:16;3.83;;;3.53;;
7517;SDS011;3800;48.922;9.444;2022-08-14T02:43:44;4.10;;;3.80;;
7517;SDS011;3800;48.922;9.444;2022-08-14T02:46:13;4.07;;;3.77;;
7517;SDS011;3800;48.922;9.444;2022-08-14T02:48:42;4.03;;;3.63;;
7517;SDS011;3800;48.922;9.444;2022-08-14T02:51:11;3.90;;;3.60;;
7517;SDS011;3800;48.922;9.444;2022-08-14T02:53:40;4.63;;;3.80;;
7517;SDS011;3800;48.922;9.444;2022-08-14T02:56:08;4.53;;;3.80;;
7517;SDS011;3800;48.922;9.444;2022-08-14T02:58:37;4.63;;;3.73;;
7517;SDS011;3800;48.922;9.444;2022-08-14T03:01:06;3.90;;;3.60;;
7517;SDS011;3800;48.922;9.444;2022-08-14T03:03:35;5.00;;;3.80;;
7517;SDS011;3800;48.922;9.444;2022-08-14T03:06:03;3.87;;;3.57;;
7517;SDS011;3800;48.922;9.444;2022-08-14T03:08:32;3.70;;;3.37;;
7517;SDS011;3800;48.922;9.444;2022-08-14T03:11:00;4.20;;;3.80;;
7517;SDS011;3800;48.922;9.444;2022-08-14T03:13:28;4.40;;;3.90;;
7517;SDS011;3800;48.922;9.444;2022-08-14T03:15:57;7.23;;;4.40;;
7517;SDS011;3800;48.922;9.444;2022-08-14T03:18:26;4.10;;;3.70;;
7517;SDS011;3800;48.922;9.444;2022-08-14T03:20:54;4.43;;;4.03;;
7517;SDS011;3800;48.922;9.444;2022-08-14T03:23:22;4.30;;;3.90;;
7517;SDS011;3800;48.922;9.444;2022-08-14T03:25:50;5.77;;;4.23;;
7517;SDS011;3800;48.922;9.444;2022-08-14T03:28:19;5.90;;;4.30;;
7517;SDS011;3800;48.922;9.444;2022-08-14T03:30:48;4.70;;;4.30;;
7517;SDS011;3800;48.922;9.444;2022-08-14T03:33:17;8.60;;;4.43;;
7517;SDS011;3800;48.922;9.444;2022-08-14T03:35:46;4.77;;;4.37;;
7517;SDS011;3800;48.922;9.444;2022-08-14T03:38:14;4.80;;;4.40;;
7517;SDS011;3800;48.922;9.444;2022-08-14T03:40:43;4.77;;;4.30;;
7517;SDS011;3800;48.922;9.444;2022-08-14T03:43:12;4.47;;;4.10;;
7517;SDS011;3800;48.922;9.444;2022-08-14T03:45:42;4.87;;;4.40;;
7517;SDS011;3800;48.922;9.444;2022-08-14T03:48:12;4.70;;;4.20;;
7517;SDS011;3800;48.922;9.444;2022-08-14T03:50:40;6.10;;;4.30;;
7517;SDS011;3800;48.922;9.444;2022-08-14T03:53:09;4.93;;;4.50;;
7517;SDS011;3800;48.922;9.444;2022-08-14T03:55:37;5.13;;;4.30;;
7517;SDS011;3800;48.922;9.444;2022-08-14T03:58:06;4.80;;;4.10;;
7517;SDS011;3800;48.922;9.444;2022-08-14T04:00:34;5.23;;;3.80;;
7517;SDS011;3800;48.922;9.444;2022-08-14T04:03:03;4.73;;;4.33;;
7517;SDS011;3800;48.922;9.444;2022-08-14T04:05:31;4.57;;;4.17;;
7517;SDS011;3800;48.922;9.444;2022-08-14T04:07:59;4.70;;;4.30;;
7517;SDS011;3800;48.922;9.444;2022-08-14T04:10:28;5.03;;;4.53;;
7517;SDS011;3800;48.922;9.444;2022-08-14T04:12:56;5.83;;;4.83;;
7517;SDS011;3800;48.922;9.444;2022-08-14T04:15:25;5.10;;;4.60;;
7517;SDS011;3800;48.922;9.444;2022-08-14T04:17:54;4.83;;;4.40;;
7517;SDS011;3800;48.922;9.444;2022-08-14T04:20:23;4.23;;;3.83;;
7517;SDS011;3800;48.922;9.444;2022-08-14T04:22:51;5.73;;;4.27;;
7517;SDS011;3800;48.922;9.444;2022-08-14T04:25:19;4.80;;;4.17;;
7517;SDS011;3800;48.922;9.444;2022-08-14T04:27:48;4.33;;;3.97;;
7517;SDS011;3800;48.922;9.444;2022-08-14T04:30:16;4.60;;;4.20;;
7517;SDS011;3800;48.922;9.444;2022-08-14T04:32:46;4.83;;;4.37;;
7517;SDS011;3800;48.922;9.444;2022-08-14T04:35:14;4.40;;;4.00;;
7517;SDS011;3800;48.922;9.444;2022-08-14T04:37:42;4.27;;;3.80;;
7517;SDS011;3800;48.922;9.444;2022-08-14T04:40:28;4.37;;;3.97;;
7517;SDS011;3800;48.922;9.444;2022-08-14T04:43:02;4.47;;;4.07;;
7517;SDS011;3800;48.922;9.444;2022-08-14T04:45:37;4.30;;;3.90;;
7517;SDS011;3800;48.922;9.444;2022-08-14T04:48:10;4.43;;;4.03;;
7517;SDS011;3800;48.922;9.444;2022-08-14T04:50:43;4.60;;;4.20;;
7517;SDS011;3800;48.922;9.444;2022-08-14T04:53:13;5.00;;;4.50;;
7517;SDS011;3800;48.922;9.444;2022-08-14T04:55:40;4.40;;;4.00;;
7517;SDS011;3800;48.922;9.444;2022-08-14T04:58:09;4.60;;;4.20;;
7517;SDS011;3800;48.922;9.444;2022-08-14T05:00:38;4.23;;;3.90;;
7517;SDS011;3800;48.922;9.444;2022-08-14T05:03:07;4.60;;;4.20;;
7517;SDS011;3800;48.922;9.444;2022-08-14T05:05:35;4.80;;;4.30;;
7517;SDS011;3800;48.922;9.444;2022-08-14T05:08:04;5.00;;;4.30;;
7517;SDS011;3800;48.922;9.444;2022-08-14T05:10:35;5.00;;;4.60;;
7517;SDS011;3800;48.922;9.444;2022-08-14T05:13:03;4.60;;;4.20;;
7517;SDS011;3800;48.922;9.444;2022-08-14T05:15:32;5.03;;;4.63;;
7517;SDS011;3800;48.922;9.444;2022-08-14T05:18:00;4.63;;;4.20;;
7517;SDS011;3800;48.922;9.444;2022-08-14T05:20:28;5.10;;;4.60;;
7517;SDS011;3800;48.922;9.444;2022-08-14T05:22:59;5.30;;;4.50;;
7517;SDS011;3800;48.922;9.444;2022-08-14T05:25:27;4.27;;;3.97;;
7517;SDS011;3800;48.922;9.444;2022-08-14T05:27:55;7.33;;;4.57;;
7517;SDS011;3800;48.922;9.444;2022-08-14T05:30:24;5.40;;;4.90;;
7517;SDS011;3800;48.922;9.444;2022-08-14T05:32:53;5.40;;;4.90;;
7517;SDS011;3800;48.922;9.444;2022-08-14T05:35:23;5.20;;;4.60;;
7517;SDS011;3800;48.922;9.444;2022-08-14T05:37:51;5.90;;;4.80;;
7517;SDS011;3800;48.922;9.444;2022-08-14T05:40:20;5.30;;;4.80;;
7517;SDS011;3800;48.922;9.444;2022-08-14T05:42:48;5.03;;;4.63;;
7517;SDS011;3800;48.922;9.444;2022-08-14T05:45:17;5.03;;;4.63;;
7517;SDS011;3800;48.922;9.444;2022-08-14T05:47:46;5.93;;;4.97;;
7517;SDS011;3800;48.922;9.444;2022-08-14T05:50:14;5.23;;;4.73;;
7517;SDS011;3800;48.922;9.444;2022-08-14T05:52:43;5.20;;;4.80;;
7517;SDS011;3800;48.922;9.444;2022-08-14T05:55:12;5.30;;;4.90;;
7517;SDS011;3800;48.922;9.444;2022-08-14T05:57:48;5.23;;;4.80;;
7517;SDS011;3800;48.922;9.444;2022-08-14T06:00:24;5.70;;;5.20;;
7517;SDS011;3800;48.922;9.444;2022-08-14T06:02:51;7.00;;;5.30;;
7517;SDS011;3800;48.922;9.444;2022-08-14T06:05:19;5.23;;;4.70;;
7517;SDS011;3800;48.922;9.444;2022-08-14T06:07:48;4.93;;;4.53;;
7517;SDS011;3800;48.922;9.444;2022-08-14T06:10:16;4.73;;;4.33;;
7517;SDS011;3800;48.922;9.444;2022-08-14T06:12:45;4.70;;;4.30;;
7517;SDS011;3800;48.922;9.444;2022-08-14T06:15:13;5.97;;;4.97;;
7517;SDS011;3800;48.922;9.444;2022-08-14T06:17:42;4.93;;;4.53;;
7517;SDS011;3800;48.922;9.444;2022-08-14T06:20:11;5.07;;;4.67;;
7517;SDS011;3800;48.922;9.444;2022-08-14T06:22:40;6.93;;;4.47;;
7517;SDS011;3800;48.922;9.444;2022-08-14T06:25:08;4.77;;;4.37;;
7517;SDS011;3800;48.922;9.444;2022-08-14T06:27:36;4.40;;;4.10;;
7517;SDS011;3800;48.922;9.444;2022-08-14T06:30:07;4.70;;;4.20;;
7517;SDS011;3800;48.922;9.444;2022-08-14T06:32:36;4.60;;;4.20;;
7517;SDS011;3800;48.922;9.444;2022-08-14T06:35:05;4.50;;;4.10;;
7517;SDS011;3800;48.922;9.444;2022-08-14T06:40:12;4.10;;;3.70;;
7517;SDS011;3800;48.922;9.444;2022-08-14T06:42:40;4.10;;;3.70;;
7517;SDS011;3800;48.922;9.444;2022-08-14T06:45:08;5.73;;;3.60;;
7517;SDS011;3800;48.922;9.444;2022-08-14T06:47:37;6.40;;;3.80;;
7517;SDS011;3800;48.922;9.444;2022-08-14T06:50:05;4.90;;;3.80;;
7517;SDS011;3800;48.922;9.444;2022-08-14T06:52:35;4.83;;;3.77;;
7517;SDS011;3800;48.922;9.444;2022-08-14T06:55:03;3.77;;;3.40;;
7517;SDS011;3800;48.922;9.444;2022-08-14T06:57:34;4.73;;;3.37;;
7517;SDS011;3800;48.922;9.444;2022-08-14T07:00:10;3.60;;;3.30;;
7517;SDS011;3800;48.922;9.444;2022-08-14T07:02:41;3.30;;;3.10;;
7517;SDS011;3800;48.922;9.444;2022-08-14T07:05:14;4.00;;;3.60;;
7517;SDS011;3800;48.922;9.444;2022-08-14T07:07:48;5.70;;;3.50;;
7517;SDS011;3800;48.922;9.444;2022-08-14T07:10:17;4.30;;;3.90;;
7517;SDS011;3800;48.922;9.444;2022-08-14T07:12:45;7.17;;;4.20;;
7517;SDS011;3800;48.922;9.444;2022-08-14T07:15:14;4.37;;;3.97;;
7517;SDS011;3800;48.922;9.444;2022-08-14T07:17:43;4.67;;;3.90;;
7517;SDS011;3800;48.922;9.444;2022-08-14T07:20:11;4.20;;;3.80;;
7517;SDS011;3800;48.922;9.444;2022-08-14T07:22:40;4.57;;;3.97;;
7517;SDS011;3800;48.922;9.444;2022-08-14T07:25:09;4.40;;;3.40;;
7517;SDS011;3800;48.922;9.444;2022-08-14T07:27:38;4.03;;;3.67;;
7517;SDS011;3800;48.922;9.444;2022-08-14T07:30:06;4.33;;;3.73;;
7517;SDS011;3800;48.922;9.444;2022-08-14T07:32:35;3.83;;;3.53;;
7517;SDS011;3800;48.922;9.444;2022-08-14T07:35:04;3.97;;;3.57;;
7517;SDS011;3800;48.922;9.444;2022-08-14T07:37:34;3.67;;;3.37;;
7517;SDS011;3800;48.922;9.444;2022-08-14T07:40:03;3.60;;;3.37;;
7517;SDS011;3800;48.922;9.444;2022-08-14T07:42:31;3.50;;;3.20;;
7517;SDS011;3800;48.922;9.444;2022-08-14T07:45:00;3.63;;;3.33;;
7517;SDS011;3800;48.922;9.444;2022-08-14T07:47:28;4.60;;;3.10;;
7517;SDS011;3800;48.922;9.444;2022-08-14T07:50:00;4.47;;;3.07;;
7517;SDS011;3800;48.922;9.444;2022-08-14T07:52:27;2.90;;;2.70;;
7517;SDS011;3800;48.922;9.444;2022-08-14T07:54:55;3.30;;;2.97;;
7517;SDS011;3800;48.922;9.444;2022-08-14T07:57:24;3.50;;;3.07;;
7517;SDS011;3800;48.922;9.444;2022-08-14T07:59:52;3.00;;;2.80;;
7517;SDS011;3800;48.922;9.444;2022-08-14T08:02:21;3.23;;;2.90;;
7517;SDS011;3800;48.922;9.444;2022-08-14T08:04:51;3.20;;;2.90;;
7517;SDS011;3800;48.922;9.444;2022-08-14T08:07:18;3.30;;;2.73;;
7517;SDS011;3800;48.922;9.444;2022-08-14T08:09:48;2.93;;;2.73;;
7517;SDS011;3800;48.922;9.444;2022-08-14T08:12:17;4.80;;;2.97;;
7517;SDS011;3800;48.922;9.444;2022-08-14T08:14:45;3.43;;;2.70;;
7517;SDS011;3800;48.922;9.444;2022-08-14T08:17:13;3.07;;;2.40;;
7517;SDS011;3800;48.922;9.444;2022-08-14T08:19:41;4.53;;;3.00;;
7517;SDS011;3800;48.922;9.444;2022-08-14T08:22:10;3.10;;;2.80;;
7517;SDS011;3800;48.922;9.444;2022-08-14T08:24:38;2.90;;;2.70;;
7517;SDS011;3800;48.922;9.444;2022-08-14T08:27:15;2.50;;;2.30;;
7517;SDS011;3800;48.922;9.444;2022-08-14T08:29:44;3.37;;;2.70;;
7517;SDS011;3800;48.922;9.444;2022-08-14T08:32:12;2.70;;;2.30;;
7517;SDS011;3800;48.922;9.444;2022-08-14T08:34:44;3.60;;;2.40;;
7517;SDS011;3800;48.922;9.444;2022-08-14T08:37:12;2.57;;;2.37;;
7517;SDS011;3800;48.922;9.444;2022-08-14T08:39:43;2.63;;;2.30;;
7517;SDS011;3800;48.922;9.444;2022-08-14T08:42:12;2.50;;;2.30;;
7517;SDS011;3800;48.922;9.444;2022-08-14T08:44:40;2.93;;;2.27;;
7517;SDS011;3800;48.922;9.444;2022-08-14T08:47:09;2.50;;;2.30;;
7517;SDS011;3800;48.922;9.444;2022-08-14T08:49:39;3.30;;;2.20;;
7517;SDS011;3800;48.922;9.444;2022-08-14T08:52:07;2.50;;;2.30;;
7517;SDS011;3800;48.922;9.444;2022-08-14T08:54:37;2.57;;;2.30;;
7517;SDS011;3800;48.922;9.444;2022-08-14T08:57:10;6.10;;;2.30;;
7517;SDS011;3800;48.922;9.444;2022-08-14T08:59:39;3.87;;;2.17;;
7517;SDS011;3800;48.922;9.444;2022-08-14T09:02:08;2.20;;;2.00;;
7517;SDS011;3800;48.922;9.444;2022-08-14T09:04:37;2.60;;;2.40;;
7517;SDS011;3800;48.922;9.444;2022-08-14T09:07:05;2.77;;;2.27;;
7517;SDS011;3800;48.922;9.444;2022-08-14T09:09:34;3.37;;;2.07;;
7517;SDS011;3800;48.922;9.444;2022-08-14T09:12:02;2.60;;;2.40;;
7517;SDS011;3800;48.922;9.444;2022-08-14T09:14:31;3.40;;;2.53;;
7517;SDS011;3800;48.922;9.444;2022-08-14T09:16:59;3.40;;;2.20;;
7517;SDS011;3800;48.922;9.444;2022-08-14T09:19:29;4.10;;;2.23;;
7517;SDS011;3800;48.922;9.444;2022-08-14T09:21:57;4.57;;;2.40;;
7517;SDS011;3800;48.922;9.444;2022-08-14T09:24:26;2.60;;;2.30;;
7517;SDS011;3800;48.922;9.444;2022-08-14T09:26:54;3.93;;;2.30;;
7517;SDS011;3800;48.922;9.444;2022-08-14T09:29:22;2.70;;;2.50;;
7517;SDS011;3800;48.922;9.444;2022-08-14T09:31:52;2.63;;;2.43;;
7517;SDS011;3800;48.922;9.444;2022-08-14T09:37:17;4.17;;;2.40;;
7517;SDS011;3800;48.922;9.444;2022-08-14T09:42:43;3.77;;;2.63;;
7517;SDS011;3800;48.922;9.444;2022-08-14T09:45:59;3.13;;;2.33;;
7517;SDS011;3800;48.922;9.444;2022-08-14T09:48:13;4.33;;;2.73;;
7517;SDS011;3800;48.922;9.444;2022-08-14T09:50:46;3.77;;;2.90;;
7517;SDS011;3800;48.922;9.444;2022-08-14T09:53:17;3.30;;;2.70;;
7517;SDS011;3800;48.922;9.444;2022-08-14T09:55:56;3.40;;;2.80;;
7517;SDS011;3800;48.922;9.444;2022-08-14T09:58:14;2.97;;;2.50;;
7517;SDS011;3800;48.922;9.444;2022-08-14T10:00:47;2.63;;;2.43;;
7517;SDS011;3800;48.922;9.444;2022-08-14T10:06:03;3.00;;;2.60;;
7517;SDS011;3800;48.922;9.444;2022-08-14T10:09:10;3.67;;;2.57;;
7517;SDS011;3800;48.922;9.444;2022-08-14T10:11:32;2.50;;;2.30;;
7517;SDS011;3800;48.922;9.444;2022-08-14T10:16:44;2.87;;;2.63;;
7517;SDS011;3800;48.922;9.444;2022-08-14T10:19:13;2.70;;;2.50;;
7517;SDS011;3800;48.922;9.444;2022-08-14T10:21:54;2.87;;;2.50;;
7517;SDS011;3800;48.922;9.444;2022-08-14T10:24:10;2.83;;;2.57;;
7517;SDS011;3800;48.922;9.444;2022-08-14T10:26:39;3.00;;;2.57;;
7517;SDS011;3800;48.922;9.444;2022-08-14T10:29:08;2.80;;;2.60;;
7517;SDS011;3800;48.922;9.444;2022-08-14T10:31:37;3.03;;;2.43;;
7517;SDS011;3800;48.922;9.444;2022-08-14T10:34:07;3.03;;;2.77;;
7517;SDS011;3800;48.922;9.444;2022-08-14T10:36:37;3.70;;;2.80;;
7517;SDS011;3800;48.922;9.444;2022-08-14T10:39:07;2.80;;;2.60;;
7517;SDS011;3800;48.922;9.444;2022-08-14T10:41:35;2.90;;;2.70;;
7517;SDS011;3800;48.922;9.444;2022-08-14T10:44:05;3.23;;;2.70;;
7517;SDS011;3800;48.922;9.444;2022-08-14T10:46:38;3.05;;;2.37;;
7517;SDS011;3800;48.922;9.444;2022-08-14T10:49:05;5.97;;;2.70;;
7517;SDS011;3800;48.922;9.444;2022-08-14T10:51:34;3.00;;;2.80;;
7517;SDS011;3800;48.922;9.444;2022-08-14T10:54:04;2.73;;;2.50;;
7517;SDS011;3800;48.922;9.444;2022-08-14T10:56:31;2.80;;;2.60;;
7517;SDS011;3800;48.922;9.444;2022-08-14T10:59:04;3.63;;;2.73;;
7517;SDS011;3800;48.922;9.444;2022-08-14T11:01:32;3.93;;;2.80;;
7517;SDS011;3800;48.922;9.444;2022-08-14T11:04:00;3.30;;;2.90;;
7517;SDS011;3800;48.922;9.444;2022-08-14T11:06:28;3.10;;;2.73;;
7517;SDS011;3800;48.922;9.444;2022-08-14T11:08:56;3.73;;;2.90;;
7517;SDS011;3800;48.922;9.444;2022-08-14T11:11:24;2.97;;;2.77;;
7517;SDS011;3800;48.922;9.444;2022-08-14T11:13:54;3.15;;;2.75;;
7517;SDS011;3800;48.922;9.444;2022-08-14T11:16:22;3.73;;;3.33;;
7517;SDS011;3800;48.922;9.444;2022-08-14T11:18:50;3.20;;;2.90;;
7517;SDS011;3800;48.922;9.444;2022-08-14T11:21:19;3.95;;;2.92;;
7517;SDS011;3800;48.922;9.444;2022-08-14T11:23:47;4.63;;;2.97;;
7517;SDS011;3800;48.922;9.444;2022-08-14T11:26:16;2.80;;;2.60;;
7517;SDS011;3800;48.922;9.444;2022-08-14T11:28:45;3.87;;;3.00;;
7517;SDS011;3800;48.922;9.444;2022-08-14T11:31:18;3.37;;;3.07;;
7517;SDS011;3800;48.922;9.444;2022-08-14T11:33:47;3.90;;;3.00;;
7517;SDS011;3800;48.922;9.444;2022-08-14T11:36:17;3.85;;;2.90;;
7517;SDS011;3800;48.922;9.444;2022-08-14T11:38:45;6.53;;;4.77;;
7517;SDS011;3800;48.922;9.444;2022-08-14T11:41:14;5.03;;;3.50;;
7517;SDS011;3800;48.922;9.444;2022-08-14T11:43:44;5.13;;;2.93;;
7517;SDS011;3800;48.922;9.444;2022-08-14T11:46:12;6.30;;;4.23;;
7517;SDS011;3800;48.922;9.444;2022-08-14T11:48:45;3.28;;;3.08;;
7517;SDS011;3800;48.922;9.444;2022-08-14T11:51:15;2.83;;;2.63;;
7517;SDS011;3800;48.922;9.444;2022-08-14T11:53:48;3.50;;;2.93;;
7517;SDS011;3800;48.922;9.444;2022-08-14T11:56:12;3.10;;;2.72;;
7517;SDS011;3800;48.922;9.444;2022-08-14T11:58:41;4.85;;;2.65;;
7517;SDS011;3800;48.922;9.444;2022-08-14T12:01:09;2.80;;;2.60;;
7517;SDS011;3800;48.922;9.444;2022-08-14T12:03:39;3.10;;;2.80;;
7517;SDS011;3800;48.922;9.444;2022-08-14T12:06:09;3.35;;;3.08;;
7517;SDS011;3800;48.922;9.444;2022-08-14T12:08:37;3.47;;;3.17;;
7517;SDS011;3800;48.922;9.444;2022-08-14T12:11:08;3.03;;;2.75;;
7517;SDS011;3800;48.922;9.444;2022-08-14T12:13:33;3.30;;;2.58;;
7517;SDS011;3800;48.922;9.444;2022-08-14T12:16:03;2.75;;;2.55;;
7517;SDS011;3800;48.922;9.444;2022-08-14T12:18:32;4.32;;;2.97;;
7517;SDS011;3800;48.922;9.444;2022-08-14T12:21:10;2.80;;;2.45;;
7517;SDS011;3800;48.922;9.444;2022-08-14T12:23:41;3.90;;;3.37;;
7517;SDS011;3800;48.922;9.444;2022-08-14T12:26:12;3.78;;;3.08;;
7517;SDS011;3800;48.922;9.444;2022-08-14T12:28:40;3.22;;;2.72;;
7517;SDS011;3800;48.922;9.444;2022-08-14T12:31:14;2.97;;;2.67;;
7517;SDS011;3800;48.922;9.444;2022-08-14T12:33:42;3.72;;;3.03;;
7517;SDS011;3800;48.922;9.444;2022-08-14T12:36:17;2.85;;;2.60;;
7517;SDS011;3800;48.922;9.444;2022-08-14T12:38:39;4.62;;;2.90;;
7517;SDS011;3800;48.922;9.444;2022-08-14T12:41:09;3.03;;;2.75;;
7517;SDS011;3800;48.922;9.444;2022-08-14T12:46:20;2.90;;;2.70;;
7517;SDS011;3800;48.922;9.444;2022-08-14T12:48:49;5.30;;;2.80;;
7517;SDS011;3800;48.922;9.444;2022-08-14T12:51:18;2.97;;;2.78;;
7517;SDS011;3800;48.922;9.444;2022-08-14T12:53:47;3.65;;;2.70;;
7517;SDS011;3800;48.922;9.444;2022-08-14T12:56:16;3.40;;;3.10;;
7517;SDS011;3800;48.922;9.444;2022-08-14T12:58:46;3.17;;;2.87;;
7517;SDS011;3800;48.922;9.444;2022-08-14T13:01:18;3.85;;;2.90;;
7517;SDS011;3800;48.922;9.444;2022-08-14T13:03:49;3.37;;;3.08;;
7517;SDS011;3800;48.922;9.444;2022-08-14T13:06:18;3.10;;;2.90;;
7517;SDS011;3800;48.922;9.444;2022-08-14T13:08:46;3.10;;;2.80;;
7517;SDS011;3800;48.922;9.444;2022-08-14T13:11:14;3.35;;;2.83;;
7517;SDS011;3800;48.922;9.444;2022-08-14T13:13:43;3.10;;;2.80;;
7517;SDS011;3800;48.922;9.444;2022-08-14T13:16:11;3.12;;;2.83;;
7517;SDS011;3800;48.922;9.444;2022-08-14T13:18:39;3.22;;;2.95;;
7517;SDS011;3800;48.922;9.444;2022-08-14T13:21:10;2.90;;;2.70;;
7517;SDS011;3800;48.922;9.444;2022-08-14T13:23:40;2.90;;;2.60;;
7517;SDS011;3800;48.922;9.444;2022-08-14T13:26:07;4.43;;;2.72;;
7517;SDS011;3800;48.922;9.444;2022-08-14T13:28:38;3.37;;;2.90;;
7517;SDS011;3800;48.922;9.444;2022-08-14T13:31:06;3.50;;;3.20;;
7517;SDS011;3800;48.922;9.444;2022-08-14T13:33:35;3.05;;;2.75;;
7517;SDS011;3800;48.922;9.444;2022-08-14T13:36:05;3.08;;;2.75;;
7517;SDS011;3800;48.922;9.444;2022-08-14T13:38:34;3.25;;;3.05;;
7517;SDS011;3800;48.922;9.444;2022-08-14T13:41:02;3.70;;;2.70;;
7517;SDS011;3800;48.922;9.444;2022-08-14T13:43:31;4.62;;;2.85;;
7517;SDS011;3800;48.922;9.444;2022-08-14T13:45:59;3.00;;;2.80;;
7517;SDS011;3800;48.922;9.444;2022-08-14T13:48:27;3.92;;;2.80;;
7517;SDS011;3800;48.922;9.444;2022-08-14T13:50:56;2.80;;;2.60;;
7517;SDS011;3800;48.922;9.444;2022-08-14T13:53:24;3.55;;;2.58;;
7517;SDS011;3800;48.922;9.444;2022-08-14T13:55:52;2.80;;;2.60;;
7517;SDS011;3800;48.922;9.444;2022-08-14T13:58:20;3.03;;;2.60;;
7517;SDS011;3800;48.922;9.444;2022-08-14T14:00:50;2.53;;;2.33;;
7517;SDS011;3800;48.922;9.444;2022-08-14T14:03:18;2.90;;;2.53;;
7517;SDS011;3800;48.922;9.444;2022-08-14T14:05:48;5.85;;;2.70;;
7517;SDS011;3800;48.922;9.444;2022-08-14T14:08:17;2.87;;;2.65;;
7517;SDS011;3800;48.922;9.444;2022-08-14T14:10:45;2.60;;;2.40;;
7517;SDS011;3800;48.922;9.444;2022-08-14T14:13:14;5.22;;;2.70;;
7517;SDS011;3800;48.922;9.444;2022-08-14T14:15:41;2.65;;;2.40;;
7517;SDS011;3800;48.922;9.444;2022-08-14T14:18:10;3.95;;;2.80;;
7517;SDS011;3800;48.922;9.444;2022-08-14T14:20:41;2.55;;;2.35;;
7517;SDS011;3800;48.922;9.444;2022-08-14T14:23:06;2.97;;;2.50;;
7517;SDS011;3800;48.922;9.444;2022-08-14T14:25:37;2.92;;;2.72;;
7517;SDS011;3800;48.922;9.444;2022-08-14T14:28:03;2.45;;;2.25;;
7517;SDS011;3800;48.922;9.444;2022-08-14T14:30:31;7.10;;;4.32;;
7517;SDS011;3800;48.922;9.444;2022-08-14T14:32:59;3.58;;;2.47;;
7517;SDS011;3800;48.922;9.444;2022-08-14T14:35:28;4.50;;;2.87;;
7517;SDS011;3800;48.922;9.444;2022-08-14T14:37:56;2.60;;;2.40;;
7517;SDS011;3800;48.922;9.444;2022-08-14T14:40:24;2.97;;;2.40;;
7517;SDS011;3800;48.922;9.444;2022-08-14T14:42:52;3.25;;;2.35;;
7517;SDS011;3800;48.922;9.444;2022-08-14T14:45:21;3.12;;;2.50;;
7517;SDS011;3800;48.922;9.444;2022-08-14T14:47:52;2.60;;;2.30;;
7517;SDS011;3800;48.922;9.444;2022-08-14T14:50:19;2.50;;;2.30;;
7517;SDS011;3800;48.922;9.444;2022-08-14T14:52:48;2.90;;;2.55;;
7517;SDS011;3800;48.922;9.444;2022-08-14T14:55:16;4.05;;;2.33;;
7517;SDS011;3800;48.922;9.444;2022-08-14T14:57:45;2.15;;;1.92;;
7517;SDS011;3800;48.922;9.444;2022-08-14T15:00:14;2.50;;;2.30;;
7517;SDS011;3800;48.922;9.444;2022-08-14T15:02:43;3.22;;;2.45;;
7517;SDS011;3800;48.922;9.444;2022-08-14T15:05:11;4.05;;;2.28;;
7517;SDS011;3800;48.922;9.444;2022-08-14T15:07:39;3.33;;;2.20;;
7517;SDS011;3800;48.922;9.444;2022-08-14T15:10:09;2.25;;;2.05;;
7517;SDS011;3800;48.922;9.444;2022-08-14T15:12:36;2.30;;;2.10;;
7517;SDS011;3800;48.922;9.444;2022-08-14T15:15:05;2.33;;;2.08;;
7517;SDS011;3800;48.922;9.444;2022-08-14T15:17:34;2.58;;;2.37;;
7517;SDS011;3800;48.922;9.444;2022-08-14T15:20:03;2.85;;;2.65;;
7517;SDS011;3800;48.922;9.444;2022-08-14T15:22:33;3.50;;;2.50;;
7517;SDS011;3800;48.922;9.444;2022-08-14T15:25:01;2.75;;;2.55;;
7517;SDS011;3800;48.922;9.444;2022-08-14T15:27:29;2.72;;;2.53;;
7517;SDS011;3800;48.922;9.444;2022-08-14T15:29:57;2.62;;;2.40;;
7517;SDS011;3800;48.922;9.444;2022-08-14T15:32:26;3.45;;;2.72;;
7517;SDS011;3800;48.922;9.444;2022-08-14T15:34:55;2.40;;;2.20;;
7517;SDS011;3800;48.922;9.444;2022-08-14T15:37:23;2.60;;;2.40;;
7517;SDS011;3800;48.922;9.444;2022-08-14T15:39:51;2.60;;;2.40;;
7517;SDS011;3800;48.922;9.444;2022-08-14T15:42:20;2.60;;;2.40;;
7517;SDS011;3800;48.922;9.444;2022-08-14T15:44:48;4.45;;;2.35;;